Arsenal, Utah
Current Conditions -  °F | °C
As of 2:58 AM on Friday 31 Oct 2014 (Local Time) from KHIF Reporting Station
Clear Clear  
Wind Chill: 12°   Ceiling: Unl
Heat Index: 12°   Visibility: 10mi
Dew Point: -3°   Wind: 10mph
Humidity: 35%   Direction: 110°ESE
Pressure: 30.06"   Gusts: NA
Location:  41.123°N, 112.063°W
Report Text: KHIF 310858Z AUTO 11009KT 10SM CLR 12/M03 A3006 RMK AO2 SLP139 T01221031 57011
Loading
Personal Weather Stations






























Interactive Weather Map
Tropical Storm Tracking
New forecast layout! Learn more

10-Day Weather Forecast

Advertisements
Track Severe Weather on mobile